Alcira, Spain
Current Conditions -  °F | °C
As of 1:30 PM on Sunday 21 Dec 2014 (Local Time) from LEVC Reporting Station
Few Clouds Few Clouds  
Wind Chill: 18°   Ceiling: Unl
Heat Index: 18°   Visibility: 6mi
Dew Point:   Wind: 2mph
Humidity: 52%   Direction: NA
Pressure: 30.45"   Gusts: NA
Location:  39.15°N, 0.44°W
Report Text: LEVC 211230Z VRB02KT 9999 FEW030 18/08 Q1031 NOSIG
Loading
Personal Weather Stations






























Interactive Weather Map New forecast layout! Learn more

10-Day Weather Forecast

Advertisements
Track Severe Weather on mobile